Time;durP1;ratioP1;P1;durP2;ratioP2;P2;SDS_P1;SDS_P2;PMS_P1;PMS_P2;Temp;Humidity;BMP_temperature;BMP_pressure;BME280_temperature;BME280_humidity;BME280_pressure;Samples;Min_cycle;Max_cycle;Signal;HPM_P1;HPM_P2
2022/08/10 00:00:59;;;;;;;11.50;7.60;;;;;;;16.23;66.86;101558.22;108596;1272;21983;-78
2022/08/10 00:03:34;;;;;;;12.60;7.70;;;;;;;16.17;67.19;101556.05;108817;1266;23085;-77
2022/08/10 00:06:03;;;;;;;;;;;;;;;16.14;67.27;101555.34;108995;1266;22617;-78
2022/08/10 00:08:35;;;;;;;10.60;7.60;;;;;;;16.02;67.47;101555.27;109150;1267;22212;-78
2022/08/10 00:11:07;;;;;;;13.70;8.20;;;;;;;15.97;67.62;101555.05;108911;1266;22045;-78
2022/08/10 00:13:44;;;;;;;12.30;8.60;;;;;;;15.96;67.69;101554.89;108935;1266;23014;-77
2022/08/10 00:16:17;;;;;;;15.50;9.10;;;;;;;15.95;67.86;101554.13;108790;1270;22010;-77
2022/08/10 00:18:48;;;;;;;16.60;9.10;;;;;;;15.92;67.84;101554.52;108501;1275;21988;-77
2022/08/10 00:21:17;;;;;;;14.40;8.30;;;;;;;15.88;67.86;101552.15;108007;1282;22082;-77
2022/08/10 00:23:49;;;;;;;13.60;10.00;;;;;;;15.85;67.73;101551.48;107972;1283;22027;-77
2022/08/10 00:26:18;;;;;;;13.10;8.50;;;;;;;15.83;67.88;101554.04;107703;1284;22014;-77
2022/08/10 00:28:52;;;;;;;12.10;9.10;;;;;;;15.79;68.02;101550.92;107966;1284;22457;-77
2022/08/10 00:31:20;;;;;;;13.50;8.40;;;;;;;15.75;68.01;101555.56;107908;1284;23737;-77
2022/08/10 00:33:51;;;;;;;17.60;9.40;;;;;;;15.71;68.13;101548.92;107992;1284;22163;-77
2022/08/10 00:36:20;;;;;;;12.80;9.90;;;;;;;15.67;68.09;101548.20;108063;1279;22007;-77
2022/08/10 00:38:49;;;;;;;12.00;8.50;;;;;;;15.64;68.41;101543.73;108383;1273;23790;-76
2022/08/10 00:41:20;;;;;;;12.20;9.80;;;;;;;15.62;68.67;101546.16;108572;1267;21987;-77
2022/08/10 00:43:54;;;;;;;10.80;9.60;;;;;;;15.61;68.67;101547.27;108513;1272;21989;-77
2022/08/10 00:46:27;;;;;;;11.50;9.20;;;;;;;15.58;68.71;101549.14;108703;1273;21988;-77
2022/08/10 00:48:57;;;;;;;14.30;8.90;;;;;;;15.56;68.75;101546.85;108809;1272;22163;-76
2022/08/10 00:51:31;;;;;;;12.10;9.20;;;;;;;15.55;68.82;101549.15;108793;1270;22742;-76
2022/08/10 00:54:21;;;;;;;10.60;8.60;;;;;;;15.51;68.79;101546.89;108642;1270;21997;-77
2022/08/10 00:56:55;;;;;;;13.40;10.20;;;;;;;15.47;68.82;101549.08;108599;1270;23857;-77
2022/08/10 00:59:45;;;;;;;12.20;9.70;;;;;;;15.43;68.86;101546.59;108540;1272;21998;-77
2022/08/10 01:02:30;;;;;;;12.40;9.70;;;;;;;15.38;69.06;101541.97;109108;1267;22067;-78
2022/08/10 01:05:09;;;;;;;13.20;9.50;;;;;;;15.36;69.13;101536.70;109253;1266;21978;-77
2022/08/10 01:07:54;;;;;;;13.60;9.10;;;;;;;15.32;69.19;101535.50;108908;1270;23084;-76
2022/08/10 01:10:32;;;;;;;13.50;8.60;;;;;;;15.29;69.26;101534.63;108751;1272;23032;-77
2022/08/10 01:13:27;;;;;;;10.80;8.90;;;;;;;15.28;69.58;101537.80;108810;1270;24214;-76
2022/08/10 01:16:24;;;;;;;;;;;;;;;15.25;69.73;101540.04;108446;1275;22735;-77
2022/08/10 01:19:51;;;;;;;9.70;7.90;;;;;;;15.14;69.94;101540.15;108409;1277;22032;-77
2022/08/10 01:22:47;;;;;;;9.70;8.60;;;;;;;15.08;69.95;101532.91;107667;1286;23187;-77
2022/08/10 01:25:56;;;;;;;12.80;8.70;;;;;;;15.05;69.99;101529.98;107634;1283;21995;-77
2022/08/10 01:28:56;;;;;;;10.10;9.00;;;;;;;15.02;70.07;101534.01;108034;1281;23079;-77
2022/08/10 01:31:37;;;;;;;13.10;8.90;;;;;;;15.00;70.04;101534.02;108035;1281;22026;-77
2022/08/10 01:34:15;;;;;;;11.20;8.90;;;;;;;14.99;69.99;101538.21;108200;1278;23052;-77
2022/08/10 01:36:54;;;;;;;9.90;8.50;;;;;;;14.97;69.99;101540.56;107993;1283;22017;-77
2022/08/10 01:39:36;;;;;;;11.20;8.80;;;;;;;14.94;69.95;101536.48;108028;1281;22795;-77
2022/08/10 01:42:09;;;;;;;10.80;9.10;;;;;;;14.92;70.06;101536.95;108412;1277;23699;-76
2022/08/10 01:44:44;;;;;;;11.80;9.90;;;;;;;14.89;70.21;101536.33;108099;1281;22001;-77
2022/08/10 01:50:36;;;;;;;13.90;9.80;;;;;;;14.86;70.37;101537.36;108035;1281;22247;-77
2022/08/10 01:53:38;;;;;;;10.40;9.40;;;;;;;14.82;70.42;101537.31;108134;1281;22001;-76
2022/08/10 01:56:14;;;;;;;10.90;9.20;;;;;;;14.79;70.51;101540.23;108347;1277;23827;-78
2022/08/10 01:59:06;;;;;;;10.60;9.00;;;;;;;14.78;70.49;101540.91;108491;1272;22444;-77
2022/08/10 02:01:48;;;;;;;11.60;9.30;;;;;;;14.75;70.45;101541.73;108434;1275;24513;-78
2022/08/10 02:04:24;;;;;;;10.90;9.20;;;;;;;14.72;70.49;101543.66;108837;1270;21986;-79
2022/08/10 02:07:00;;;;;;;11.90;9.00;;;;;;;14.72;70.73;101546.19;108823;1269;23078;-76
2022/08/10 02:09:42;;;;;;;11.50;9.70;;;;;;;14.72;70.76;101544.94;108792;1269;21982;-77
2022/08/10 02:12:16;;;;;;;11.20;9.90;;;;;;;14.70;70.66;101546.56;108602;1270;23716;-77
2022/08/10 02:14:56;;;;;;;11.60;9.50;;;;;;;14.68;70.51;101546.63;108814;1269;23172;-77
2022/08/10 02:17:35;;;;;;;14.70;9.90;;;;;;;14.67;70.63;101548.65;108752;1270;22882;-77
2022/08/10 02:20:42;;;;;;;12.20;9.80;;;;;;;14.67;70.88;101549.21;109165;1266;22910;-77
2022/08/10 02:23:38;;;;;;;10.70;8.60;;;;;;;14.66;70.94;101548.45;109262;1267;22059;-77
2022/08/10 02:26:11;;;;;;;15.00;10.30;;;;;;;14.67;70.90;101549.75;109018;1267;22066;-77
2022/08/10 02:28:45;;;;;;;13.40;11.90;;;;;;;14.69;71.12;101548.81;109188;1266;24490;-77
2022/08/10 02:31:21;;;;;;;11.00;9.90;;;;;;;14.72;71.10;101549.75;109217;1265;21979;-78
2022/08/10 02:33:57;;;;;;;12.30;10.80;;;;;;;14.74;71.18;101548.98;109190;1266;21976;-78
2022/08/10 02:36:33;;;;;;;12.80;9.90;;;;;;;14.76;71.30;101549.45;109144;1267;23647;-78
2022/08/10 02:39:06;;;;;;;13.50;10.80;;;;;;;14.78;71.28;101552.78;109110;1266;21979;-78
2022/08/10 02:42:15;;;;;;;11.00;9.70;;;;;;;14.78;71.05;101556.17;108720;1270;21970;-78
2022/08/10 02:45:16;;;;;;;10.70;9.40;;;;;;;14.75;71.23;101557.20;108770;1270;22846;-77
2022/08/10 02:48:06;;;;;;;12.80;10.30;;;;;;;14.74;71.25;101552.75;108867;1270;22179;-76
2022/08/10 02:50:39;;;;;;;11.00;9.80;;;;;;;14.76;71.30;101554.84;108468;1273;23607;-76
2022/08/10 02:53:21;;;;;;;12.20;9.60;;;;;;;14.76;71.28;101551.29;108456;1275;23701;-76
2022/08/10 02:56:45;;;;;;;15.10;10.70;;;;;;;14.73;71.25;101550.34;108446;1275;22986;-77
2022/08/10 02:59:22;;;;;;;14.20;10.00;;;;;;;14.69;71.10;101551.09;108484;1272;21998;-77
2022/08/10 03:01:56;;;;;;;11.70;10.40;;;;;;;14.65;71.28;101549.25;108401;1275;22002;-78
2022/08/10 03:04:41;;;;;;;10.90;9.80;;;;;;;14.62;71.15;101550.93;108441;1275;23085;-77
2022/08/10 03:07:31;;;;;;;15.20;10.70;;;;;;;14.57;70.96;101553.49;108465;1275;21993;-78
2022/08/10 03:10:21;;;;;;;17.70;14.20;;;;;;;14.52;71.07;101549.06;108402;1275;23625;-77
2022/08/10 03:13:04;;;;;;;16.80;12.40;;;;;;;14.49;71.19;101548.64;108320;1278;22054;-78
2022/08/10 03:15:37;;;;;;;16.10;11.30;;;;;;;14.45;71.35;101548.13;108265;1275;22003;-77
2022/08/10 03:18:10;;;;;;;16.80;11.20;;;;;;;14.43;71.34;101550.85;108379;1275;22183;-78
2022/08/10 03:20:43;;;;;;;14.40;10.30;;;;;;;14.41;71.31;101556.77;108265;1276;23856;-77
2022/08/10 03:23:17;;;;;;;13.60;11.40;;;;;;;14.38;71.39;101562.35;108416;1276;22014;-78
2022/08/10 03:25:51;;;;;;;16.50;10.90;;;;;;;14.35;71.33;101563.64;108455;1275;22138;-77
2022/08/10 03:28:27;;;;;;;16.00;12.10;;;;;;;14.31;71.41;101562.80;108409;1275;23069;-76
2022/08/10 03:31:01;;;;;;;19.50;13.40;;;;;;;14.27;71.44;101563.17;108568;1272;22784;-76
2022/08/10 03:33:36;;;;;;;16.10;11.40;;;;;;;14.24;71.54;101561.60;108506;1273;22006;-78
2022/08/10 03:36:08;;;;;;;21.70;13.50;;;;;;;14.22;71.59;101563.90;108548;1272;23677;-78
2022/08/10 03:39:00;;;;;;;22.70;14.40;;;;;;;14.19;71.63;101564.25;108711;1267;21982;-79
2022/08/10 03:41:50;;;;;;;23.80;14.80;;;;;;;14.18;71.83;101565.52;108928;1266;23042;-78
2022/08/10 03:44:28;;;;;;;;;;;;;;;14.16;71.97;101564.35;109015;1266;21982;-78
2022/08/10 03:47:00;;;;;;;23.20;14.40;;;;;;;14.08;72.23;101564.85;108922;1267;22004;-78
2022/08/10 03:49:32;;;;;;;25.80;15.60;;;;;;;14.08;72.36;101566.62;108989;1266;23027;-79
2022/08/10 03:52:02;;;;;;;17.10;13.90;;;;;;;14.11;72.40;101570.70;108896;1269;23522;-78
2022/08/10 03:54:33;;;;;;;19.70;12.60;;;;;;;14.13;72.42;101574.27;108938;1267;24437;-78
2022/08/10 03:57:12;;;;;;;15.40;12.10;;;;;;;14.15;72.51;101574.94;109215;1265;24115;-78
2022/08/10 03:59:41;;;;;;;16.70;11.50;;;;;;;14.17;72.45;101575.17;109163;1267;21979;-76
2022/08/10 04:02:10;;;;;;;11.70;10.50;;;;;;;14.20;72.41;101578.45;108727;1270;23043;-78
2022/08/10 04:04:59;;;;;;;14.50;11.70;;;;;;;14.22;72.51;101577.79;108779;1270;22463;-77
2022/08/10 04:07:31;;;;;;;14.70;12.10;;;;;;;14.24;72.68;101577.89;108776;1270;23788;-77
2022/08/10 04:10:00;;;;;;;13.50;10.80;;;;;;;14.27;72.74;101578.64;108746;1270;22095;-78
2022/08/10 04:12:31;;;;;;;16.10;10.30;;;;;;;14.30;72.78;101580.07;108750;1270;23692;-78
2022/08/10 04:15:00;;;;;;;16.70;14.60;;;;;;;14.33;72.91;101579.52;108731;1270;22068;-78
2022/08/10 04:17:30;;;;;;;19.60;13.50;;;;;;;14.39;73.12;101579.48;108862;1270;22020;-76
2022/08/10 04:20:35;;;;;;;17.20;12.20;;;;;;;14.44;73.16;101578.93;108903;1266;23599;-78
2022/08/10 04:23:12;;;;;;;14.40;11.80;;;;;;;14.47;72.99;101579.29;109107;1267;23777;-78
2022/08/10 04:25:41;;;;;;;18.60;13.00;;;;;;;14.51;73.13;101578.02;109222;1267;23049;-77
2022/08/10 04:28:11;;;;;;;17.00;12.30;;;;;;;14.57;73.11;101581.59;109146;1266;23037;-77
2022/08/10 04:30:47;;;;;;;18.10;12.70;;;;;;;14.65;73.07;101583.09;109197;1267;21983;-77
2022/08/10 04:33:31;;;;;;;15.40;12.10;;;;;;;14.71;73.06;101580.02;108991;1266;23613;-78
2022/08/10 04:36:04;;;;;;;18.50;12.40;;;;;;;14.76;72.99;101580.12;109219;1266;21975;-77
2022/08/10 04:38:35;;;;;;;24.20;21.60;;;;;;;14.82;72.81;101579.50;109095;1267;23716;-77
2022/08/10 04:41:10;;;;;;;18.10;13.80;;;;;;;14.87;72.66;101578.05;108800;1270;22290;-78
2022/08/10 04:43:44;;;;;;;18.50;14.60;;;;;;;14.94;72.73;101576.77;108847;1270;23588;-77
2022/08/10 04:46:15;;;;;;;20.30;13.30;;;;;;;15.02;72.80;101579.82;108995;1270;22002;-77
2022/08/10 04:49:07;;;;;;;14.40;11.80;;;;;;;15.10;72.76;101578.98;108824;1270;22115;-77
2022/08/10 04:51:58;;;;;;;16.80;11.30;;;;;;;15.17;72.65;101582.46;108842;1270;23654;-78
2022/08/10 04:54:27;;;;;;;17.30;11.80;;;;;;;15.26;72.68;101583.23;108918;1269;22106;-78
2022/08/10 04:56:57;;;;;;;19.40;11.80;;;;;;;15.36;72.55;101582.67;108872;1270;22006;-77
2022/08/10 04:59:26;;;;;;;21.00;12.10;;;;;;;15.45;72.39;101585.02;109087;1266;23660;-77
2022/08/10 05:01:55;;;;;;;14.50;12.30;;;;;;;15.56;72.27;101590.92;108771;1273;22003;-77
2022/08/10 05:04:45;;;;;;;21.50;13.20;;;;;;;15.68;72.24;101592.42;108820;1270;22396;-77
2022/08/10 05:07:16;;;;;;;22.10;12.70;;;;;;;15.80;72.15;101593.59;108849;1270;23681;-77
2022/08/10 05:09:48;;;;;;;24.60;17.20;;;;;;;15.91;71.58;101604.48;108845;1270;23688;-77
2022/08/10 05:12:38;;;;;;;17.80;14.40;;;;;;;16.01;71.52;101606.70;108801;1270;21985;-77
2022/08/10 05:15:12;;;;;;;20.00;14.20;;;;;;;16.12;71.25;101607.46;108729;1270;23055;-77
2022/08/10 05:17:42;;;;;;;27.30;13.80;;;;;;;16.23;71.08;101610.66;108774;1270;22177;-77
2022/08/10 05:20:34;;;;;;;18.60;14.00;;;;;;;16.34;70.89;101610.91;108862;1266;21991;-77
2022/08/10 05:23:06;;;;;;;16.20;11.00;;;;;;;16.49;70.86;101610.70;108987;1267;23725;-77
2022/08/10 05:25:34;;;;;;;15.60;14.00;;;;;;;16.65;70.60;101613.07;108995;1266;21985;-77
2022/08/10 05:28:06;;;;;;;15.40;10.70;;;;;;;16.81;70.49;101613.38;108534;1272;22801;-77
2022/08/10 05:30:35;;;;;;;18.00;13.00;;;;;;;16.94;69.98;101611.19;108709;1272;23084;-78
2022/08/10 05:33:04;;;;;;;17.20;11.70;;;;;;;17.06;69.36;101612.66;108546;1272;21990;-77
2022/08/10 05:35:37;;;;;;;9.80;8.90;;;;;;;17.19;69.22;101611.81;108731;1272;21978;-77
2022/08/10 05:38:30;;;;;;;13.70;10.60;;;;;;;17.40;69.33;101605.11;108735;1272;22074;-77
2022/08/10 05:40:59;;;;;;;10.00;9.00;;;;;;;17.64;69.25;101605.09;108757;1273;23592;-77
2022/08/10 05:43:29;;;;;;;9.60;8.60;;;;;;;17.89;68.96;101606.00;108484;1275;22117;-77
2022/08/10 05:46:01;;;;;;;15.50;8.40;;;;;;;18.15;68.38;101605.48;108410;1276;23602;-75
2022/08/10 05:48:48;;;;;;;9.40;8.40;;;;;;;18.44;67.82;101604.38;108470;1275;22192;-77
2022/08/10 05:51:31;;;;;;;10.90;9.00;;;;;;;18.77;67.59;101606.39;108447;1273;21986;-76
2022/08/10 05:54:01;;;;;;;9.90;9.00;;;;;;;19.11;66.65;101606.83;108572;1273;22002;-75
2022/08/10 05:56:38;;;;;;;8.70;7.20;;;;;;;19.46;65.86;101609.02;108741;1269;23058;-76
2022/08/10 05:59:42;;;;;;;8.40;7.10;;;;;;;19.81;64.19;101612.66;108754;1272;21990;-76
2022/08/10 06:02:44;;;;;;;14.30;7.50;;;;;;;20.15;62.81;101614.96;108986;1266;22298;-76
2022/08/10 06:05:25;;;;;;;8.80;6.70;;;;;;;20.47;62.02;101613.14;108965;1266;23087;-77
2022/08/10 06:07:54;;;;;;;9.40;7.00;;;;;;;20.88;61.72;101620.77;108904;1266;21969;-77
2022/08/10 06:10:24;;;;;;;16.20;8.00;;;;;;;21.27;59.97;101619.83;109128;1266;22289;-77
2022/08/10 06:16:06;;;;;;;12.60;5.60;;;;;;;22.06;57.95;101621.30;109237;1266;23061;-76
2022/08/10 06:18:36;;;;;;;9.80;5.30;;;;;;;22.48;57.09;101623.77;108950;1267;22349;-77
2022/08/10 06:21:08;;;;;;;6.60;5.00;;;;;;;22.93;55.87;101626.23;108661;1272;23619;-78
2022/08/10 06:23:40;;;;;;;8.40;4.70;;;;;;;23.32;54.43;101627.88;108717;1272;23079;-79
2022/08/10 06:26:09;;;;;;;7.40;4.70;;;;;;;23.67;53.10;101629.33;108470;1272;22879;-78
2022/08/10 06:28:58;;;;;;;12.60;4.90;;;;;;;24.01;52.09;101628.55;108550;1272;22064;-81
2022/08/10 06:31:42;;;;;;;6.70;4.90;;;;;;;24.32;50.80;101629.52;108793;1272;21957;-79
2022/08/10 06:34:44;;;;;;;13.10;5.70;;;;;;;24.59;49.69;101630.93;108704;1273;22380;-79
2022/08/10 06:37:25;;;;;;;9.60;4.50;;;;;;;24.66;48.84;101630.63;108582;1273;22327;-79
2022/08/10 06:39:57;;;;;;;7.00;4.00;;;;;;;24.78;48.59;101631.64;108853;1267;21982;-78
2022/08/10 06:42:40;;;;;;;8.20;4.20;;;;;;;25.00;48.69;101632.52;108937;1267;21989;-79
2022/08/10 06:45:26;;;;;;;10.10;5.30;;;;;;;25.37;48.36;101638.45;108984;1266;23786;-78
2022/08/10 06:48:04;;;;;;;8.50;5.10;;;;;;;25.71;47.05;101639.28;108948;1266;22001;-79
2022/08/10 06:50:53;;;;;;;8.90;4.60;;;;;;;25.87;45.69;101642.85;108949;1266;23074;-78
2022/08/10 06:53:45;;;;;;;10.00;5.10;;;;;;;25.88;45.01;101639.34;109235;1265;21978;-78
2022/08/10 06:56:38;;;;;;;11.10;4.90;;;;;;;25.97;45.92;101637.19;109236;1267;21976;-80
2022/08/10 06:59:39;;;;;;;9.60;5.30;;;;;;;26.27;45.35;101635.36;109193;1267;21985;-80
2022/08/10 07:02:24;;;;;;;12.00;5.20;;;;;;;26.53;44.35;101638.53;109170;1267;22043;-79
2022/08/10 07:05:03;;;;;;;7.30;4.70;;;;;;;26.62;43.23;101638.50;109179;1265;22974;-79
2022/08/10 07:07:39;;;;;;;10.20;5.00;;;;;;;26.68;42.69;101635.62;109216;1267;23012;-79
2022/08/10 07:10:10;;;;;;;9.20;4.50;;;;;;;26.80;42.98;101630.94;109157;1264;23574;-79
2022/08/10 07:12:43;;;;;;;8.80;4.60;;;;;;;26.94;42.16;101630.98;108957;1266;23034;-79
2022/08/10 07:15:14;;;;;;;8.10;4.00;;;;;;;26.91;41.43;101633.35;109006;1267;23841;-79
2022/08/10 07:17:46;;;;;;;9.30;4.50;;;;;;;26.81;41.43;101631.08;108744;1272;23696;-80
2022/08/10 07:20:21;;;;;;;8.00;4.20;;;;;;;26.86;41.99;101628.98;108593;1275;22020;-80
2022/08/10 07:22:52;;;;;;;8.00;3.90;;;;;;;27.00;41.71;101628.05;108644;1275;23746;-79
2022/08/10 07:25:46;;;;;;;6.30;3.80;;;;;;;27.28;41.33;101632.98;108592;1275;22019;-79
2022/08/10 07:28:16;;;;;;;;;;;;;;;27.50;40.28;101631.86;108495;1275;22029;-80
2022/08/10 07:30:50;;;;;;;7.00;4.10;;;;;;;27.56;39.83;101629.87;108688;1281;23707;-89
2022/08/10 07:33:23;;;;;;;5.80;3.10;;;;;;;27.69;39.83;101630.32;108948;1281;23606;-88
2022/08/10 07:36:03;;;;;;;7.30;3.30;;;;;;;27.79;39.02;101630.70;109079;1278;22027;-86
2022/08/10 07:38:36;;;;;;;7.10;3.20;;;;;;;27.80;38.45;101633.80;109324;1272;22008;-87
2022/08/10 07:41:21;;;;;;;5.70;3.40;;;;;;;27.79;38.61;101636.51;109385;1272;22661;-86
2022/08/10 07:44:02;;;;;;;6.50;3.90;;;;;;;27.83;38.55;101634.18;109375;1272;22013;-87
2022/08/10 07:46:42;;;;;;;5.50;3.00;;;;;;;27.86;38.39;101635.52;109327;1272;22209;-86
2022/08/10 07:49:22;;;;;;;7.50;2.80;;;;;;;28.01;38.80;101630.83;109508;1266;21981;-87
2022/08/10 07:51:59;;;;;;;9.00;3.20;;;;;;;28.30;38.25;101629.69;109762;1266;22484;-85
2022/08/10 07:54:44;;;;;;;8.80;2.50;;;;;;;28.39;37.11;101630.05;109653;1267;22047;-86
2022/08/10 07:57:33;;;;;;;4.60;2.40;;;;;;;28.44;36.51;101628.44;109523;1270;23109;-88
2022/08/10 08:00:29;;;;;;;4.50;2.10;;;;;;;28.53;36.43;101627.22;109677;1270;22076;-87
2022/08/10 08:03:02;;;;;;;4.70;2.90;;;;;;;28.71;36.24;101625.21;109329;1272;21991;-85
2022/08/10 08:05:34;;;;;;;6.50;2.60;;;;;;;28.84;36.02;101630.06;109567;1270;21998;-87
2022/08/10 08:08:42;;;;;;;;;;;;;;;;;;;;;
2022/08/10 08:11:22;;;;;;;2.10;1.60;;;;;;;29.14;34.96;101630.48;109405;1270;21989;-82
2022/08/10 08:13:59;;;;;;;6.90;2.20;;;;;;;29.18;34.19;101630.95;109092;1270;21996;-83
2022/08/10 08:16:31;;;;;;;5.90;1.80;;;;;;;29.06;33.38;101628.86;109259;1265;21998;-86
2022/08/10 08:19:16;;;;;;;3.70;2.20;;;;;;;29.09;34.32;101627.84;109349;1267;22046;-84
2022/08/10 08:22:09;;;;;;;2.10;1.40;;;;;;;29.22;33.64;101627.33;109526;1266;21995;-85
2022/08/10 08:25:05;;;;;;;3.00;1.70;;;;;;;29.23;33.10;101626.91;109382;1266;22050;-84
2022/08/10 08:27:45;;;;;;;5.80;1.90;;;;;;;29.33;32.95;101624.64;109422;1266;21973;-85
2022/08/10 08:30:34;;;;;;;4.80;1.50;;;;;;;29.50;33.09;101624.02;109548;1267;21954;-84
2022/08/10 08:33:14;;;;;;;2.90;1.90;;;;;;;29.56;32.11;101621.39;109414;1264;22520;-83
2022/08/10 08:36:05;;;;;;;3.60;1.50;;;;;;;29.53;31.95;101622.63;109291;1267;22920;-82
2022/08/10 08:38:40;;;;;;;4.00;1.50;;;;;;;29.53;31.29;101615.39;109331;1267;21972;-83
2022/08/10 08:42:14;;;;;;;3.00;2.10;;;;;;;29.35;31.24;101611.80;109524;1266;21975;-83
2022/08/10 08:45:28;;;;;;;6.10;1.40;;;;;;;29.32;32.13;101606.84;109571;1266;22083;-83
2022/08/10 08:47:59;;;;;;;;;;;;;;;29.42;31.51;101610.15;109539;1266;21957;-84
2022/08/10 08:50:56;;;;;;;4.00;1.60;;;;;;;29.32;31.20;101609.39;109475;1266;22440;-84
2022/08/10 08:54:03;;;;;;;2.40;1.20;;;;;;;29.24;31.87;101610.53;109061;1272;21993;-86
2022/08/10 08:57:27;;;;;;;3.40;1.50;;;;;;;29.31;31.84;101606.61;109239;1271;22001;-85
2022/08/10 09:00:49;;;;;;;2.30;1.30;;;;;;;29.53;30.84;101611.10;109160;1272;22000;-82
2022/08/10 09:03:26;;;;;;;3.60;1.60;;;;;;;29.55;31.12;101604.50;109123;1272;22041;-83
2022/08/10 09:06:31;;;;;;;4.20;1.80;;;;;;;29.68;31.05;101608.02;109142;1272;23719;-84
2022/08/10 09:09:21;;;;;;;2.70;1.50;;;;;;;29.68;30.06;101613.20;109090;1272;21989;-84
2022/08/10 09:12:37;;;;;;;2.90;1.20;;;;;;;29.57;30.73;101605.16;109257;1266;22028;-84
2022/08/10 09:15:06;;;;;;;4.10;1.50;;;;;;;29.68;30.86;101602.64;108737;1276;21985;-83
2022/08/10 09:18:04;;;;;;;4.90;1.50;;;;;;;29.90;30.56;101604.19;108781;1276;22001;-83
2022/08/10 09:21:07;;;;;;;2.80;1.90;;;;;;;30.05;29.89;101606.58;107917;1287;22077;-82
2022/08/10 09:24:15;;;;;;;4.80;1.80;;;;;;;30.18;28.69;101603.86;107922;1288;22029;-83
2022/08/10 09:27:13;;;;;;;4.30;1.60;;;;;;;30.27;28.46;101606.90;106771;1296;23108;-82
2022/08/10 09:30:02;;;;;;;4.10;1.60;;;;;;;30.31;28.52;101603.52;106395;1295;22906;-83
2022/08/10 09:32:54;;;;;;;5.80;1.50;;;;;;;30.42;28.49;101601.58;106294;1293;22195;-83
2022/08/10 09:36:16;;;;;;;2.00;1.20;;;;;;;30.40;28.29;101605.29;107157;1296;22024;-84
2022/08/10 09:39:40;;;;;;;3.50;1.70;;;;;;;30.53;28.94;101600.17;107641;1289;544125;-83
2022/08/10 09:42:41;;;;;;;;;;;;;;;30.62;28.46;101598.48;109541;1266;23709;-82
2022/08/10 09:45:27;;;;;;;5.60;1.70;;;;;;;30.74;28.50;101597.84;110504;1259;21993;-83
2022/08/10 09:48:19;;;;;;;2.50;1.20;;;;;;;30.69;28.15;101597.17;110482;1257;22187;-80
2022/08/10 09:51:21;;;;;;;3.00;1.30;;;;;;;30.61;28.29;101592.87;110483;1257;21974;-85
2022/08/10 09:54:36;;;;;;;1.90;1.10;;;;;;;30.63;28.03;101597.46;109699;1254;22438;-83
2022/08/10 09:57:18;;;;;;;1.50;1.00;;;;;;;30.53;27.73;101595.21;110867;1254;22749;-83
2022/08/10 10:00:22;;;;;;;2.20;1.10;;;;;;;30.56;27.79;101589.05;110893;1254;22965;-84
2022/08/10 10:03:34;;;;;;;2.70;1.40;;;;;;;30.78;27.66;101585.86;110811;1254;22035;-82
2022/08/10 10:06:56;;;;;;;3.60;1.10;;;;;;;30.93;27.48;101583.50;110950;1254;21963;-81
2022/08/10 10:10:19;;;;;;;3.40;1.90;;;;;;;31.08;27.21;101574.09;110669;1256;21972;-82
2022/08/10 10:13:03;;;;;;;;;;;;;;;30.87;26.57;101578.77;110602;1256;23667;-81
2022/08/10 10:16:09;;;;;;;3.20;1.60;;;;;;;30.38;27.13;101573.70;110812;1256;21978;-82
2022/08/10 10:19:23;;;;;;;4.20;1.30;;;;;;;30.10;27.21;101575.23;110679;1256;22010;-81
2022/08/10 10:21:57;;;;;;;4.50;1.20;;;;;;;29.67;27.63;101575.55;110855;1257;21977;-83
2022/08/10 10:25:02;;;;;;;2.00;1.00;;;;;;;29.52;28.11;101569.81;110853;1256;21992;-85
2022/08/10 10:28:34;;;;;;;3.90;1.30;;;;;;;29.47;27.99;101565.59;110772;1256;23610;-82
2022/08/10 10:31:32;;;;;;;3.20;1.20;;;;;;;29.10;28.03;101564.60;110729;1254;23060;-81
2022/08/10 10:34:24;;;;;;;2.50;1.30;;;;;;;28.59;28.32;101562.41;110553;1256;21973;-81
2022/08/10 10:36:59;;;;;;;2.60;1.50;;;;;;;28.17;29.63;101562.48;110040;1260;22003;-80
2022/08/10 10:39:31;;;;;;;3.20;1.40;;;;;;;28.21;30.20;101555.89;110204;1261;21994;-81
2022/08/10 10:42:40;;;;;;;5.00;1.30;;;;;;;28.31;30.24;101552.35;109368;1267;22093;-79
2022/08/10 10:45:52;;;;;;;2.40;1.20;;;;;;;28.46;29.89;101550.05;108847;1273;22002;-79
2022/08/10 10:49:20;;;;;;;2.00;1.20;;;;;;;28.57;29.57;101543.38;108502;1279;22002;-81
2022/08/10 10:52:16;;;;;;;6.90;1.80;;;;;;;28.59;29.33;101539.97;108220;1285;23409;-81
2022/08/10 10:55:13;;;;;;;3.20;1.30;;;;;;;28.55;29.16;101535.64;108292;1283;22382;-80
2022/08/10 10:58:41;;;;;;;3.30;1.50;;;;;;;28.45;29.23;101532.87;108295;1285;22012;-83
2022/08/10 11:01:20;;;;;;;2.80;1.50;;;;;;;28.11;29.37;101534.71;108329;1276;22355;-81
2022/08/10 11:04:26;;;;;;;8.90;1.70;;;;;;;27.75;30.23;101532.67;108595;1273;21985;-79
2022/08/10 11:07:18;;;;;;;3.60;1.70;;;;;;;27.54;30.85;101531.05;108941;1267;24386;-82
2022/08/10 11:10:09;;;;;;;2.70;1.10;;;;;;;27.44;31.40;101530.49;109167;1267;21985;-79
2022/08/10 11:13:41;;;;;;;6.50;1.50;;;;;;;27.38;31.40;101532.21;109201;1266;23761;-78
2022/08/10 11:16:46;;;;;;;3.60;1.50;;;;;;;27.26;31.48;101531.39;109321;1264;21990;-76
2022/08/10 11:19:20;;;;;;;4.30;2.10;;;;;;;27.17;31.55;101529.75;109250;1267;21990;-73
2022/08/10 11:22:21;;;;;;;4.50;1.40;;;;;;;27.14;31.54;101527.65;109288;1265;22072;-76
2022/08/10 11:25:26;;;;;;;2.70;1.30;;;;;;;27.18;32.30;101525.20;109089;1264;23634;-75
2022/08/10 11:28:30;;;;;;;2.60;1.40;;;;;;;27.29;32.38;101523.14;109730;1263;22565;-79
2022/08/10 11:31:38;;;;;;;2.50;1.60;;;;;;;27.35;31.87;101519.26;110317;1257;23093;-76
2022/08/10 11:34:29;;;;;;;4.30;2.70;;;;;;;27.32;31.53;101522.09;110128;1257;21961;-76
2022/08/10 11:37:37;;;;;;;2.20;1.50;;;;;;;27.15;31.70;101526.19;109778;1260;24369;-78
2022/08/10 11:41:00;;;;;;;9.10;2.10;;;;;;;26.99;32.18;101522.73;109837;1261;22064;-77
2022/08/10 11:44:15;;;;;;;2.80;1.50;;;;;;;26.79;32.27;101523.69;109141;1268;21977;-78
2022/08/10 11:47:19;;;;;;;4.10;1.50;;;;;;;26.59;32.94;101519.14;108959;1270;22911;-78
2022/08/10 11:50:02;;;;;;;4.30;2.50;;;;;;;26.57;33.53;101516.07;108578;1276;22056;-79
2022/08/10 11:53:02;;;;;;;2.40;1.50;;;;;;;26.61;33.31;101515.48;108765;1276;22069;-80
2022/08/10 11:55:36;;;;;;;6.50;1.80;;;;;;;26.59;33.20;101516.49;108896;1273;23034;-77
2022/08/10 12:01:06;;;;;;;5.80;1.50;;;;;;;26.56;33.17;101513.88;108797;1270;23085;-77
2022/08/10 12:03:42;;;;;;;4.10;1.50;;;;;;;26.57;33.09;101513.46;108918;1270;21982;-77
2022/08/10 12:06:16;;;;;;;4.10;1.50;;;;;;;26.52;33.31;101511.77;108586;1273;22770;-77
2022/08/10 12:09:07;;;;;;;2.60;1.50;;;;;;;26.43;33.26;101511.43;108784;1270;22108;-77
2022/08/10 12:12:00;;;;;;;3.80;1.90;;;;;;;26.34;33.37;101512.03;108598;1270;23007;-75
2022/08/10 12:14:39;;;;;;;3.70;1.20;;;;;;;26.28;33.44;101506.36;108356;1276;22113;-79
2022/08/10 12:17:21;;;;;;;7.50;2.30;;;;;;;26.28;33.66;101506.23;108490;1276;23803;-79
2022/08/10 12:20:23;;;;;;;4.20;1.80;;;;;;;26.29;33.87;101502.84;108142;1279;23035;-80
2022/08/10 12:23:39;;;;;;;3.90;1.60;;;;;;;26.28;34.12;101492.64;108723;1273;22002;-78
2022/08/10 12:26:25;;;;;;;2.10;1.60;;;;;;;26.31;34.29;101489.83;108542;1273;23096;-77
2022/08/10 12:29:41;;;;;;;6.60;2.50;;;;;;;26.31;34.22;101488.26;108858;1270;22051;-78
2022/08/10 12:32:26;;;;;;;7.10;2.20;;;;;;;26.16;34.37;101483.23;108880;1267;22957;-77
2022/08/10 12:35:21;;;;;;;7.20;1.80;;;;;;;26.03;34.50;101479.52;109051;1267;23843;-76
2022/08/10 12:38:28;;;;;;;4.80;2.30;;;;;;;25.92;34.69;101478.19;109130;1263;22124;-79
2022/08/10 12:41:08;;;;;;;6.70;2.10;;;;;;;25.85;34.64;101477.77;109545;1263;23114;-79
2022/08/10 12:44:21;;;;;;;3.50;2.20;;;;;;;25.81;34.61;101475.80;109135;1263;22027;-81
2022/08/10 12:47:33;;;;;;;10.00;2.10;;;;;;;25.81;34.88;101471.92;108877;1270;24345;-83